Otto, New York
Current Conditions -  °F | °C
As of 3:53 PM on Monday 24 Nov 2014 (Local Time) from KDKK Reporting Station
Light Rain Light Rain  
Wind Chill: 59°   Ceiling: Unl
Heat Index: 59°   Visibility: 10mi
Dew Point: 49°   Wind: 25mph
Humidity: 69%   Direction: 220°SW
Pressure: 29.35"   Gusts: 39mph
Location:  42.36°N, 78.83°W
Report Text: KDKK 242053Z AUTO 22022G34KT 10SM -RA FEW039 FEW090 SCT110 15/09 A2935 RMK AO2 PK WND 24035/2001 SLP940 P0002 60008 T01500094 53035
Loading
Personal Weather Stations






























Interactive Weather Map New forecast layout! Learn more

10-Day Weather Forecast

Advertisements
Track Severe Weather on mobile